createdAt,value
2022-10-04T00:00:25.333Z,0.40
2022-10-04T00:01:25.380Z,0.30
2022-10-04T00:02:25.370Z,0.30
2022-10-04T00:03:25.332Z,0.30
2022-10-04T00:04:25.484Z,0.30
2022-10-04T00:05:25.332Z,0.30
2022-10-04T00:06:25.356Z,0.40
2022-10-04T00:07:25.332Z,0.40
2022-10-04T00:08:25.332Z,0.40
2022-10-04T00:09:25.332Z,0.40
2022-10-04T00:10:25.333Z,0.40
2022-10-04T00:11:25.332Z,0.40
2022-10-04T00:12:25.335Z,0.40
2022-10-04T00:13:25.331Z,0.40
2022-10-04T00:14:25.333Z,0.40
2022-10-04T00:15:25.331Z,0.40
2022-10-04T00:16:25.415Z,0.30
2022-10-04T00:17:25.332Z,0.30
2022-10-04T00:18:25.333Z,0.30
2022-10-04T00:19:25.330Z,0.40
2022-10-04T00:20:25.337Z,0.30
2022-10-04T00:21:25.331Z,0.40
2022-10-04T00:22:25.356Z,0.40
2022-10-04T00:23:25.331Z,0.40
2022-10-04T00:24:25.331Z,0.30
2022-10-04T00:25:25.331Z,0.30
2022-10-04T00:26:25.331Z,0.40
2022-10-04T00:27:25.330Z,0.40
2022-10-04T00:28:25.481Z,0.40
2022-10-04T00:29:25.330Z,0.30
2022-10-04T00:30:25.331Z,0.40
2022-10-04T00:31:25.359Z,0.40
2022-10-04T00:32:25.332Z,0.40
2022-10-04T00:33:25.331Z,0.40
2022-10-04T00:34:29.439Z,0.40
2022-10-04T00:35:25.341Z,0.30
2022-10-04T00:36:25.334Z,0.30
2022-10-04T00:37:25.330Z,0.30
2022-10-04T00:38:25.452Z,0.30
2022-10-04T00:39:25.330Z,0.30
2022-10-04T00:40:25.330Z,0.40
2022-10-04T00:41:25.331Z,0.40
2022-10-04T00:42:25.329Z,0.40
2022-10-04T00:43:25.329Z,0.40
2022-10-04T00:44:25.331Z,0.30
2022-10-04T00:45:25.329Z,0.30
2022-10-04T00:46:25.374Z,0.40
2022-10-04T00:47:25.328Z,0.40
2022-10-04T00:48:30.425Z,0.40
2022-10-04T00:49:25.330Z,0.40
2022-10-04T00:50:25.329Z,0.40
2022-10-04T00:51:25.337Z,0.40
2022-10-04T00:52:25.330Z,0.30
2022-10-04T00:53:25.329Z,0.30
2022-10-04T00:54:25.436Z,0.40
2022-10-04T00:55:25.328Z,0.40
2022-10-04T00:56:25.329Z,0.40
2022-10-04T00:57:25.331Z,0.30
2022-10-04T00:58:25.328Z,0.30
2022-10-04T00:59:25.331Z,0.40
2022-10-04T01:00:25.329Z,0.30
2022-10-04T01:01:25.345Z,0.30
2022-10-04T01:02:25.345Z,0.50
2022-10-04T01:03:25.327Z,0.40
2022-10-04T01:04:25.331Z,0.40
2022-10-04T01:05:25.329Z,0.40
2022-10-04T01:06:25.328Z,0.40
2022-10-04T01:07:25.327Z,0.40
2022-10-04T01:08:25.328Z,0.40
2022-10-04T01:09:25.329Z,0.40
2022-10-04T01:10:25.349Z,0.40
2022-10-04T01:11:25.327Z,0.30
2022-10-04T01:12:25.328Z,0.50
2022-10-04T01:13:25.327Z,0.40
2022-10-04T01:14:25.327Z,0.40
2022-10-04T01:15:25.335Z,0.40
2022-10-04T01:16:25.419Z,0.50
2022-10-04T01:17:25.328Z,0.50
2022-10-04T01:18:25.331Z,0.50
2022-10-04T01:19:25.327Z,0.40
2022-10-04T01:20:25.328Z,0.40
2022-10-04T01:21:25.327Z,0.40
2022-10-04T01:22:25.327Z,0.40
2022-10-04T01:23:25.326Z,0.30
2022-10-04T01:24:25.326Z,0.50
2022-10-04T01:25:25.335Z,0.40
2022-10-04T01:26:25.346Z,0.40
2022-10-04T01:27:25.325Z,0.50
2022-10-04T01:28:25.395Z,0.40
2022-10-04T01:29:25.328Z,0.40
2022-10-04T01:30:25.326Z,0.30
2022-10-04T01:31:25.405Z,0.40
2022-10-04T01:32:25.325Z,0.40
2022-10-04T01:33:25.331Z,0.40
2022-10-04T01:34:25.327Z,0.50
2022-10-04T01:35:25.326Z,0.40
2022-10-04T01:36:25.324Z,0.40
2022-10-04T01:37:25.328Z,0.40
2022-10-04T01:38:25.329Z,0.40
2022-10-04T01:39:25.326Z,0.40
2022-10-04T01:40:25.324Z,0.40
2022-10-04T01:41:25.326Z,0.40
2022-10-04T01:42:25.348Z,0.40
2022-10-04T01:43:25.325Z,0.40
2022-10-04T01:44:25.327Z,0.50
2022-10-04T01:45:25.335Z,0.40
2022-10-04T01:46:25.487Z,0.40
2022-10-04T01:47:25.328Z,0.40
2022-10-04T01:48:25.323Z,0.40
2022-10-04T01:49:25.327Z,0.50
2022-10-04T01:50:25.327Z,0.40
2022-10-04T01:51:25.325Z,0.40
2022-10-04T01:52:25.327Z,0.40
2022-10-04T01:53:25.393Z,0.40
2022-10-04T01:54:25.324Z,0.40
2022-10-04T01:55:25.326Z,0.40
2022-10-04T01:56:25.323Z,0.30
2022-10-04T01:57:25.324Z,0.40
2022-10-04T01:58:25.474Z,0.30
2022-10-04T01:59:25.326Z,0.50
2022-10-04T02:00:25.327Z,0.40
2022-10-04T02:01:25.379Z,0.30
2022-10-04T02:02:25.323Z,0.40
2022-10-04T02:03:25.391Z,0.40
2022-10-04T02:04:25.527Z,0.40
2022-10-04T02:05:25.325Z,0.40
2022-10-04T02:06:25.324Z,0.40
2022-10-04T02:07:25.324Z,0.40
2022-10-04T02:08:25.364Z,0.40
2022-10-04T02:09:25.323Z,0.40
2022-10-04T02:10:25.325Z,0.40
2022-10-04T02:11:25.323Z,0.40
2022-10-04T02:12:25.322Z,0.40
2022-10-04T02:13:25.324Z,0.40
2022-10-04T02:14:25.352Z,0.40
2022-10-04T02:15:25.327Z,0.40
2022-10-04T02:16:25.359Z,0.40
2022-10-04T02:17:25.324Z,0.40
2022-10-04T02:18:25.321Z,0.50
2022-10-04T02:19:25.325Z,0.40
2022-10-04T02:20:25.323Z,0.40
2022-10-04T02:21:25.324Z,0.40
2022-10-04T02:22:25.320Z,0.40
2022-10-04T02:23:25.322Z,0.40
2022-10-04T02:24:25.322Z,0.40
2022-10-04T02:25:25.324Z,0.40
2022-10-04T02:26:25.322Z,0.40
2022-10-04T02:27:25.323Z,0.30
2022-10-04T02:28:25.384Z,0.40
2022-10-04T02:29:25.324Z,0.40
2022-10-04T02:30:25.359Z,0.40
2022-10-04T02:31:25.467Z,0.30
2022-10-04T02:32:25.322Z,0.50
2022-10-04T02:33:25.323Z,0.40
2022-10-04T02:34:25.323Z,0.40
2022-10-04T02:35:25.324Z,0.40
2022-10-04T02:36:25.322Z,0.30
2022-10-04T02:37:25.323Z,0.40
2022-10-04T02:38:25.320Z,0.40
2022-10-04T02:39:25.320Z,0.50
2022-10-04T02:40:25.321Z,0.30
2022-10-04T02:41:25.322Z,0.30
2022-10-04T02:42:25.322Z,0.30
2022-10-04T02:43:25.325Z,0.50
2022-10-04T02:44:25.319Z,0.40
2022-10-04T02:45:25.322Z,0.50
2022-10-04T02:46:25.492Z,0.40
2022-10-04T02:47:25.321Z,0.40
2022-10-04T02:48:25.320Z,0.50
2022-10-04T02:49:25.321Z,0.30
2022-10-04T02:50:25.320Z,0.30
2022-10-04T02:51:25.319Z,0.40
2022-10-04T02:52:25.323Z,0.40
2022-10-04T02:53:25.320Z,0.40
2022-10-04T02:54:25.319Z,0.50
2022-10-04T02:55:25.335Z,0.40
2022-10-04T02:56:25.320Z,0.40
2022-10-04T02:57:25.320Z,0.30
2022-10-04T02:58:25.320Z,0.40
2022-10-04T02:59:25.323Z,0.30
2022-10-04T03:00:25.318Z,0.40
2022-10-04T03:01:25.420Z,0.40
2022-10-04T03:02:29.506Z,0.50
2022-10-04T03:03:25.320Z,0.40
2022-10-04T03:04:25.469Z,0.40
2022-10-04T03:05:25.320Z,0.40
2022-10-04T03:06:25.319Z,0.40
2022-10-04T03:07:25.319Z,0.40
2022-10-04T03:08:25.319Z,0.50
2022-10-04T03:09:29.645Z,0.40
2022-10-04T03:10:25.316Z,0.40
2022-10-04T03:11:25.321Z,0.40
2022-10-04T03:12:25.317Z,0.30
2022-10-04T03:13:25.319Z,0.30
2022-10-04T03:14:25.317Z,0.40
2022-10-04T03:15:25.318Z,0.40
2022-10-04T03:16:25.377Z,0.40
2022-10-04T03:17:25.318Z,0.30
2022-10-04T03:18:25.340Z,0.30
2022-10-04T03:19:25.319Z,0.40
2022-10-04T03:20:25.316Z,0.40
2022-10-04T03:21:25.319Z,0.40
2022-10-04T03:22:25.316Z,0.30
2022-10-04T03:23:25.318Z,0.40
2022-10-04T03:24:25.317Z,0.40
2022-10-04T03:25:25.319Z,0.40
2022-10-04T03:26:25.316Z,0.30
2022-10-04T03:27:25.318Z,0.40
2022-10-04T03:28:25.399Z,0.30
2022-10-04T03:29:25.318Z,0.40
2022-10-04T03:30:25.317Z,0.30
2022-10-04T03:31:25.359Z,0.40
2022-10-04T03:32:25.317Z,0.40
2022-10-04T03:33:25.316Z,0.50
2022-10-04T03:34:25.337Z,0.30
2022-10-04T03:35:25.317Z,0.30
2022-10-04T03:36:25.316Z,0.40
2022-10-04T03:37:25.318Z,0.50
2022-10-04T03:38:25.317Z,0.40
2022-10-04T03:39:25.317Z,0.40
2022-10-04T03:40:25.315Z,0.40
2022-10-04T03:41:25.318Z,0.40
2022-10-04T03:42:25.316Z,0.30
2022-10-04T03:43:25.316Z,0.40
2022-10-04T03:44:25.317Z,0.50
2022-10-04T03:45:25.427Z,0.30
2022-10-04T03:46:25.315Z,0.40
2022-10-04T03:47:25.315Z,0.40
2022-10-04T03:48:25.315Z,0.30
2022-10-04T03:49:25.315Z,0.40
2022-10-04T03:50:25.336Z,0.30
2022-10-04T03:51:25.316Z,0.40
2022-10-04T03:52:25.313Z,0.40
2022-10-04T03:53:25.318Z,0.40
2022-10-04T03:54:25.313Z,0.40
2022-10-04T03:55:25.315Z,0.40
2022-10-04T03:56:25.315Z,0.40
2022-10-04T03:57:25.314Z,0.30
2022-10-04T03:58:25.315Z,0.50
2022-10-04T03:59:25.314Z,0.40
2022-10-04T04:00:25.314Z,0.40
2022-10-04T04:01:25.394Z,0.40
2022-10-04T04:02:25.408Z,0.40
2022-10-04T04:03:25.314Z,0.40
2022-10-04T04:04:25.465Z,0.30
2022-10-04T04:05:25.314Z,0.40
2022-10-04T04:06:25.335Z,0.30
2022-10-04T04:07:25.315Z,0.40
2022-10-04T04:08:25.313Z,0.40
2022-10-04T04:09:25.314Z,0.30
2022-10-04T04:10:25.313Z,0.30
2022-10-04T04:11:25.313Z,0.40
2022-10-04T04:12:25.314Z,0.40
2022-10-04T04:13:25.313Z,0.40
2022-10-04T04:14:25.313Z,0.40
2022-10-04T04:15:25.312Z,0.40
2022-10-04T04:16:25.348Z,0.40
2022-10-04T04:17:25.313Z,0.40
2022-10-04T04:18:25.311Z,0.40
2022-10-04T04:19:25.314Z,0.40
2022-10-04T04:20:25.313Z,0.40
2022-10-04T04:21:25.313Z,0.30
2022-10-04T04:22:25.334Z,0.50
2022-10-04T04:23:25.312Z,0.30
2022-10-04T04:24:25.313Z,0.40
2022-10-04T04:25:25.314Z,0.40
2022-10-04T04:26:25.312Z,0.30
2022-10-04T04:27:29.063Z,0.40
2022-10-04T04:28:25.433Z,0.40
2022-10-04T04:29:25.313Z,0.40
2022-10-04T04:30:25.311Z,0.50
2022-10-04T04:31:25.375Z,0.40
2022-10-04T04:32:25.313Z,0.40
2022-10-04T04:33:25.311Z,0.40
2022-10-04T04:34:25.311Z,0.40
2022-10-04T04:35:25.311Z,0.30
2022-10-04T04:36:25.310Z,0.30
2022-10-04T04:37:25.311Z,0.40
2022-10-04T04:38:25.332Z,0.40
2022-10-04T04:39:25.311Z,0.30
2022-10-04T04:40:25.311Z,0.40
2022-10-04T04:41:25.311Z,0.30
2022-10-04T04:42:25.309Z,0.40
2022-10-04T04:43:25.312Z,0.40
2022-10-04T04:44:25.310Z,0.40
2022-10-04T04:45:25.352Z,0.30
2022-10-04T04:46:27.915Z,0.40
2022-10-04T04:47:25.310Z,0.40
2022-10-04T04:48:25.310Z,0.50
2022-10-04T04:49:25.310Z,0.40
2022-10-04T04:50:25.309Z,0.30
2022-10-04T04:51:25.315Z,0.50
2022-10-04T04:52:25.317Z,0.40
2022-10-04T04:53:25.310Z,0.40
2022-10-04T04:54:25.329Z,0.30
2022-10-04T04:55:25.312Z,0.50
2022-10-04T04:56:25.308Z,0.50
2022-10-04T04:57:25.310Z,0.40
2022-10-04T04:58:25.310Z,0.40
2022-10-04T04:59:25.311Z,0.40
2022-10-04T05:00:25.311Z,0.30
2022-10-04T05:01:25.342Z,0.40
2022-10-04T05:02:25.326Z,0.30
2022-10-04T05:03:25.308Z,0.40
2022-10-04T05:04:25.559Z,0.30
2022-10-04T05:05:25.309Z,0.40
2022-10-04T05:06:25.311Z,0.40
2022-10-04T05:07:25.310Z,0.40
2022-10-04T05:08:25.308Z,0.40
2022-10-04T05:09:25.313Z,0.50
2022-10-04T05:10:25.328Z,0.40
2022-10-04T05:11:25.309Z,0.40
2022-10-04T05:12:25.309Z,0.30
2022-10-04T05:13:25.309Z,0.40
2022-10-04T05:14:25.307Z,0.40
2022-10-04T05:15:25.308Z,0.40
2022-10-04T05:16:25.409Z,0.40
2022-10-04T05:17:25.339Z,0.40
2022-10-04T05:18:25.306Z,0.50
2022-10-04T05:19:25.309Z,0.50
2022-10-04T05:20:25.307Z,0.40
2022-10-04T05:21:25.318Z,0.30
2022-10-04T05:22:25.307Z,0.40
2022-10-04T05:23:25.309Z,0.40
2022-10-04T05:24:25.306Z,0.40
2022-10-04T05:25:25.308Z,0.40
2022-10-04T05:26:25.366Z,0.40
2022-10-04T05:27:25.308Z,0.30
2022-10-04T05:28:25.434Z,0.40
2022-10-04T05:29:25.307Z,0.40
2022-10-04T05:30:25.307Z,0.30
2022-10-04T05:31:25.391Z,0.60
2022-10-04T05:32:25.308Z,0.50
2022-10-04T05:33:25.308Z,0.50
2022-10-04T05:34:25.306Z,0.50
2022-10-04T05:35:25.307Z,0.50
2022-10-04T05:36:25.314Z,0.40
2022-10-04T05:37:25.311Z,0.50
2022-10-04T05:38:25.308Z,0.40
2022-10-04T05:39:25.307Z,0.50
2022-10-04T05:40:25.309Z,0.50
2022-10-04T05:41:26.633Z,0.50
2022-10-04T05:42:25.329Z,0.40
2022-10-04T05:43:25.307Z,0.40
2022-10-04T05:44:25.310Z,0.50
2022-10-04T05:45:25.458Z,0.50
2022-10-04T05:46:25.318Z,0.40
2022-10-04T05:47:25.309Z,0.50
2022-10-04T05:48:25.310Z,0.40
2022-10-04T05:49:25.310Z,0.50
2022-10-04T05:50:25.309Z,0.40
2022-10-04T05:51:25.310Z,0.50
2022-10-04T05:52:25.310Z,0.50
2022-10-04T05:53:25.314Z,0.50
2022-10-04T05:54:25.314Z,0.50
2022-10-04T05:55:25.311Z,0.40
2022-10-04T05:56:25.312Z,0.60
2022-10-04T05:57:25.321Z,0.50
2022-10-04T05:58:25.359Z,0.60
2022-10-04T05:59:25.312Z,0.50
2022-10-04T06:00:25.313Z,0.60
2022-10-04T06:01:25.394Z,0.60
2022-10-04T06:02:25.382Z,0.50
2022-10-04T06:03:25.313Z,0.50
2022-10-04T06:04:25.313Z,0.60
2022-10-04T06:05:28.865Z,0.40
2022-10-04T06:06:25.316Z,0.50
2022-10-04T06:07:25.315Z,0.40
2022-10-04T06:08:25.314Z,0.50
2022-10-04T06:09:25.316Z,0.50
2022-10-04T06:10:25.315Z,0.50
2022-10-04T06:11:25.314Z,0.40
2022-10-04T06:12:25.319Z,0.50
2022-10-04T06:13:25.316Z,0.50
2022-10-04T06:14:25.342Z,0.40
2022-10-04T06:15:25.316Z,0.50
2022-10-04T06:16:25.374Z,0.70
2022-10-04T06:17:25.319Z,0.40
2022-10-04T06:18:25.320Z,0.50
2022-10-04T06:19:25.320Z,0.40
2022-10-04T06:20:25.320Z,0.40
2022-10-04T06:21:25.321Z,0.50
2022-10-04T06:22:25.321Z,0.50
2022-10-04T06:23:25.320Z,0.40
2022-10-04T06:24:27.115Z,0.50
2022-10-04T06:25:25.322Z,0.50
2022-10-04T06:26:25.322Z,0.50
2022-10-04T06:27:25.321Z,0.50
2022-10-04T06:28:25.405Z,0.40
2022-10-04T06:29:25.323Z,0.50
2022-10-04T06:30:25.405Z,0.50
2022-10-04T06:31:25.324Z,0.50
2022-10-04T06:32:25.325Z,0.50
2022-10-04T06:33:25.327Z,0.40
2022-10-04T06:34:25.326Z,0.50
2022-10-04T06:35:25.327Z,0.50
2022-10-04T06:36:25.328Z,0.60
2022-10-04T06:37:25.328Z,0.70
2022-10-04T06:38:25.330Z,0.50
2022-10-04T06:39:25.329Z,0.50
2022-10-04T06:40:25.401Z,0.50
2022-10-04T06:41:25.330Z,0.60
2022-10-04T06:42:25.335Z,0.40
2022-10-04T06:43:25.331Z,0.40
2022-10-04T06:44:25.334Z,0.50
2022-10-04T06:45:25.333Z,0.40
2022-10-04T06:46:25.416Z,0.40
2022-10-04T06:47:25.337Z,0.60
2022-10-04T06:48:25.336Z,0.50
2022-10-04T06:49:25.336Z,0.50
2022-10-04T06:50:25.395Z,0.50
2022-10-04T06:51:25.337Z,0.50
2022-10-04T06:52:25.338Z,0.50
2022-10-04T06:53:25.338Z,0.60
2022-10-04T06:54:25.339Z,0.50
2022-10-04T06:55:25.350Z,0.60
2022-10-04T06:56:25.341Z,0.50
2022-10-04T06:57:25.340Z,0.60
2022-10-04T06:58:25.343Z,0.50
2022-10-04T06:59:25.344Z,0.60
2022-10-04T07:00:25.453Z,0.70
2022-10-04T07:01:25.358Z,0.60
2022-10-04T07:02:25.473Z,0.60
2022-10-04T07:03:25.344Z,0.60
2022-10-04T07:04:25.347Z,0.60
2022-10-04T07:05:25.347Z,0.70
2022-10-04T07:06:25.348Z,0.60
2022-10-04T07:07:25.347Z,0.60
2022-10-04T07:08:25.351Z,0.70
2022-10-04T07:09:25.348Z,0.60
2022-10-04T07:10:25.356Z,0.70
2022-10-04T07:11:25.349Z,0.60
2022-10-04T07:12:25.351Z,0.60
2022-10-04T07:13:25.352Z,0.60
2022-10-04T07:14:25.352Z,0.60
2022-10-04T07:15:25.353Z,0.60
2022-10-04T07:16:25.359Z,0.50
2022-10-04T07:17:25.354Z,0.70
2022-10-04T07:18:25.377Z,0.60
2022-10-04T07:19:25.354Z,0.70
2022-10-04T07:20:25.357Z,0.60
2022-10-04T07:21:25.357Z,0.50
2022-10-04T07:22:25.363Z,0.60
2022-10-04T07:23:28.530Z,0.60
2022-10-04T07:24:25.360Z,0.60
2022-10-04T07:25:25.360Z,0.50
2022-10-04T07:26:25.359Z,0.50
2022-10-04T07:27:25.359Z,0.60
2022-10-04T07:28:25.419Z,0.50
2022-10-04T07:29:25.374Z,0.60
2022-10-04T07:30:25.361Z,0.60
2022-10-04T07:31:25.418Z,0.60
2022-10-04T07:32:25.366Z,0.60
2022-10-04T07:33:25.363Z,0.60
2022-10-04T07:34:25.421Z,0.60
2022-10-04T07:35:25.364Z,0.60
2022-10-04T07:36:25.367Z,0.60
2022-10-04T07:37:25.367Z,0.70
2022-10-04T07:38:25.367Z,0.50
2022-10-04T07:39:25.368Z,0.60
2022-10-04T07:40:25.369Z,0.50
2022-10-04T07:41:25.369Z,0.60
2022-10-04T07:42:25.369Z,0.60
2022-10-04T07:43:25.370Z,0.70
2022-10-04T07:44:25.373Z,0.60
2022-10-04T07:45:29.695Z,0.60
2022-10-04T07:46:25.448Z,0.50
2022-10-04T07:47:25.372Z,0.60
2022-10-04T07:48:25.373Z,0.60
2022-10-04T07:49:25.374Z,0.60
2022-10-04T07:50:25.408Z,0.60
2022-10-04T07:51:25.375Z,0.70
2022-10-04T07:52:25.377Z,0.60
2022-10-04T07:53:25.377Z,0.70
2022-10-04T07:54:25.376Z,0.60
2022-10-04T07:55:25.380Z,0.60
2022-10-04T07:56:25.379Z,0.50
2022-10-04T07:57:25.377Z,0.50
2022-10-04T07:58:25.381Z,0.50
2022-10-04T07:59:25.381Z,0.50
2022-10-04T08:00:25.382Z,0.50
2022-10-04T08:01:25.380Z,0.60
2022-10-04T08:02:30.155Z,0.50
2022-10-04T08:03:25.488Z,0.50
2022-10-04T08:04:25.383Z,0.50
2022-10-04T08:05:25.384Z,0.60
2022-10-04T08:06:25.463Z,0.60
2022-10-04T08:07:25.385Z,0.60
2022-10-04T08:08:25.391Z,0.60
2022-10-04T08:09:25.387Z,0.60
2022-10-04T08:10:25.386Z,0.60
2022-10-04T08:11:25.387Z,0.60
2022-10-04T08:12:25.388Z,0.60
2022-10-04T08:13:25.389Z,0.70
2022-10-04T08:14:25.390Z,0.50
2022-10-04T08:15:25.389Z,0.60
2022-10-04T08:16:25.471Z,0.60
2022-10-04T08:17:25.390Z,0.60
2022-10-04T08:18:25.395Z,0.60
2022-10-04T08:19:25.393Z,0.50
2022-10-04T08:20:25.393Z,0.60
2022-10-04T08:21:25.394Z,0.50
2022-10-04T08:22:25.414Z,0.70
2022-10-04T08:23:25.395Z,0.60
2022-10-04T08:24:25.397Z,0.60
2022-10-04T08:25:25.397Z,0.60
2022-10-04T08:26:25.397Z,0.50
2022-10-04T08:27:25.399Z,0.60
2022-10-04T08:28:25.441Z,0.60
2022-10-04T08:29:25.399Z,0.70
2022-10-04T08:30:25.399Z,0.60
2022-10-04T08:31:25.435Z,0.60
2022-10-04T08:32:25.404Z,0.60
2022-10-04T08:33:25.401Z,0.60
2022-10-04T08:34:25.403Z,0.50
2022-10-04T08:35:25.403Z,0.50
2022-10-04T08:36:25.405Z,0.50
2022-10-04T08:37:25.411Z,0.60
2022-10-04T08:38:25.427Z,0.50
2022-10-04T08:39:25.405Z,0.40
2022-10-04T08:40:25.407Z,0.50
2022-10-04T08:41:25.407Z,0.50
2022-10-04T08:42:25.408Z,0.60
2022-10-04T08:43:25.425Z,0.50
2022-10-04T08:44:25.408Z,0.50
2022-10-04T08:45:25.408Z,0.50
2022-10-04T08:46:25.484Z,0.50
2022-10-04T08:47:25.411Z,0.60
2022-10-04T08:48:25.411Z,0.50
2022-10-04T08:49:25.411Z,0.50
2022-10-04T08:50:25.413Z,0.60
2022-10-04T08:51:25.412Z,0.60
2022-10-04T08:52:25.421Z,0.50
2022-10-04T08:53:25.415Z,0.50
2022-10-04T08:54:25.445Z,0.60
2022-10-04T08:55:25.415Z,0.50
2022-10-04T08:56:25.421Z,0.60
2022-10-04T08:57:25.416Z,0.50
2022-10-04T08:58:25.419Z,0.40
2022-10-04T08:59:25.417Z,0.60
2022-10-04T09:00:25.420Z,0.50
2022-10-04T09:01:25.564Z,0.60
2022-10-04T09:02:25.520Z,0.50
2022-10-04T09:03:25.423Z,0.60
2022-10-04T09:04:25.608Z,0.60
2022-10-04T09:05:25.457Z,0.40
2022-10-04T09:06:25.423Z,0.50
2022-10-04T09:07:25.424Z,0.60
2022-10-04T09:08:25.426Z,0.70
2022-10-04T09:09:25.423Z,0.60
2022-10-04T09:10:25.514Z,0.50
2022-10-04T09:11:25.432Z,0.50
2022-10-04T09:12:25.428Z,0.60
2022-10-04T09:13:25.426Z,0.60
2022-10-04T09:14:25.427Z,0.60
2022-10-04T09:15:25.427Z,0.60
2022-10-04T09:16:25.503Z,0.70
2022-10-04T09:17:25.431Z,0.70
2022-10-04T09:18:25.432Z,0.60
2022-10-04T09:19:25.432Z,0.60
2022-10-04T09:20:39.327Z,0.70
2022-10-04T09:21:25.433Z,0.60
2022-10-04T09:22:25.435Z,0.60
2022-10-04T09:23:25.435Z,0.60
2022-10-04T09:24:25.435Z,0.70
2022-10-04T09:25:25.442Z,0.70
2022-10-04T09:26:25.470Z,0.60
2022-10-04T09:27:53.134Z,0.60
2022-10-04T09:28:25.493Z,0.60
2022-10-04T09:29:25.437Z,0.60
2022-10-04T09:30:25.439Z,0.60
2022-10-04T09:31:25.521Z,0.50
2022-10-04T09:32:25.440Z,0.60
2022-10-04T09:33:25.443Z,0.70
2022-10-04T09:34:25.442Z,0.70
2022-10-04T09:35:25.441Z,0.70
2022-10-04T09:36:25.443Z,0.70
2022-10-04T09:37:25.443Z,0.60
2022-10-04T09:38:25.444Z,0.60
2022-10-04T09:39:30.495Z,0.50
2022-10-04T09:40:25.446Z,0.60
2022-10-04T09:41:25.445Z,0.70
2022-10-04T09:42:25.476Z,0.80
2022-10-04T09:43:25.447Z,0.70
2022-10-04T09:44:25.449Z,0.70
2022-10-04T09:45:25.450Z,0.70
2022-10-04T09:46:25.523Z,0.60
2022-10-04T09:47:25.448Z,0.70
2022-10-04T09:48:25.453Z,0.70
2022-10-04T09:49:25.452Z,0.80
2022-10-04T09:50:25.451Z,0.80
2022-10-04T09:51:25.457Z,0.60
2022-10-04T09:52:25.452Z,0.80
2022-10-04T09:53:25.454Z,0.90
2022-10-04T09:54:25.455Z,0.70
2022-10-04T09:55:25.455Z,0.90
2022-10-04T09:56:25.454Z,0.70
2022-10-04T09:57:25.456Z,1.10
2022-10-04T09:58:25.484Z,0.80
2022-10-04T09:59:25.456Z,0.70
2022-10-04T10:00:25.464Z,0.70
2022-10-04T10:01:25.490Z,0.80
2022-10-04T10:02:25.484Z,0.80
2022-10-04T10:03:25.465Z,0.80
2022-10-04T10:04:25.461Z,0.80
2022-10-04T10:05:25.463Z,0.90
2022-10-04T10:06:25.460Z,0.90
2022-10-04T10:07:25.463Z,0.90
2022-10-04T10:08:28.278Z,1.00
2022-10-04T10:09:25.466Z,0.90
2022-10-04T10:10:25.464Z,0.90
2022-10-04T10:11:25.466Z,1.00
2022-10-04T10:12:25.465Z,0.90
2022-10-04T10:13:28.825Z,0.90
2022-10-04T10:14:25.489Z,0.90
2022-10-04T10:15:25.469Z,0.90
2022-10-04T10:16:25.600Z,1.00
2022-10-04T10:17:25.469Z,1.00
2022-10-04T10:18:25.468Z,1.00
2022-10-04T10:19:28.308Z,0.80
2022-10-04T10:20:25.471Z,1.00
2022-10-04T10:21:25.474Z,1.00
2022-10-04T10:22:25.472Z,0.90
2022-10-04T10:23:25.474Z,1.00
2022-10-04T10:24:25.473Z,0.90
2022-10-04T10:25:25.478Z,1.00
2022-10-04T10:26:25.478Z,1.00
2022-10-04T10:27:25.476Z,0.90
2022-10-04T10:28:25.543Z,1.00
2022-10-04T10:29:25.477Z,1.10
2022-10-04T10:30:25.498Z,1.00
2022-10-04T10:31:25.535Z,1.10
2022-10-04T10:32:25.480Z,1.10
2022-10-04T10:33:25.480Z,1.00
2022-10-04T10:34:25.479Z,1.00
2022-10-04T10:35:25.488Z,1.10
2022-10-04T10:36:25.482Z,0.90
2022-10-04T10:37:25.484Z,1.10
2022-10-04T10:38:25.483Z,1.00
2022-10-04T10:39:25.485Z,1.10
2022-10-04T10:40:25.484Z,1.00
2022-10-04T10:41:25.488Z,1.10
2022-10-04T10:42:25.487Z,1.10
2022-10-04T10:43:25.488Z,0.90
2022-10-04T10:44:25.487Z,0.90
2022-10-04T10:45:25.490Z,1.00
2022-10-04T10:46:25.578Z,1.00
2022-10-04T10:47:25.491Z,0.90
2022-10-04T10:48:25.491Z,1.10
2022-10-04T10:49:25.492Z,1.00
2022-10-04T10:50:25.491Z,0.90
2022-10-04T10:51:25.494Z,1.00
2022-10-04T10:52:25.494Z,1.00
2022-10-04T10:53:25.495Z,0.90
2022-10-04T10:54:25.494Z,0.80
2022-10-04T10:55:25.498Z,0.90
2022-10-04T10:56:29.947Z,1.10
2022-10-04T10:57:25.498Z,0.90
2022-10-04T10:58:25.497Z,1.00
2022-10-04T10:59:25.499Z,1.00
2022-10-04T11:00:25.499Z,0.80
2022-10-04T11:01:25.563Z,1.00
2022-10-04T11:02:42.299Z,0.90
2022-10-04T11:03:29.798Z,1.00
2022-10-04T11:04:25.502Z,0.90
2022-10-04T11:05:25.504Z,1.00
2022-10-04T11:06:25.502Z,1.00
2022-10-04T11:07:25.507Z,1.10
2022-10-04T11:08:25.507Z,1.10
2022-10-04T11:09:25.618Z,0.90
2022-10-04T11:10:25.509Z,1.00
2022-10-04T11:11:25.507Z,1.10
2022-10-04T11:12:25.509Z,1.00
2022-10-04T11:14:25.511Z,1.00
2022-10-04T11:15:25.510Z,0.90
2022-10-04T11:16:25.876Z,0.90
2022-10-04T11:17:25.514Z,1.00
2022-10-04T11:18:25.549Z,1.00
2022-10-04T11:19:25.515Z,0.90
2022-10-04T11:20:25.526Z,1.00
2022-10-04T11:21:25.515Z,0.90
2022-10-04T11:22:25.516Z,1.00
2022-10-04T11:23:25.516Z,1.10
2022-10-04T11:24:25.519Z,1.10
2022-10-04T11:25:25.518Z,1.00
2022-10-04T11:26:25.518Z,0.90
2022-10-04T11:27:25.519Z,1.10
2022-10-04T11:28:25.575Z,1.00
2022-10-04T11:29:25.522Z,0.90
2022-10-04T11:30:25.523Z,1.30
2022-10-04T11:31:25.653Z,0.80
2022-10-04T11:32:25.525Z,0.90
2022-10-04T11:33:25.525Z,1.00
2022-10-04T11:34:25.557Z,1.00
2022-10-04T11:35:25.527Z,0.90
2022-10-04T11:36:25.527Z,1.10
2022-10-04T11:37:25.528Z,0.80
2022-10-04T11:38:25.529Z,1.00
2022-10-04T11:39:25.529Z,0.80
2022-10-04T11:40:25.531Z,1.00
2022-10-04T11:41:25.530Z,1.10
2022-10-04T11:42:25.532Z,1.00
2022-10-04T11:43:25.534Z,0.80
2022-10-04T11:44:25.534Z,1.00
2022-10-04T11:45:25.534Z,1.00
2022-10-04T11:46:25.595Z,0.80
2022-10-04T11:47:25.535Z,0.90
2022-10-04T11:48:25.536Z,1.00
2022-10-04T11:49:25.540Z,0.80
2022-10-04T11:50:25.563Z,0.90
2022-10-04T11:51:25.537Z,1.00
2022-10-04T11:52:25.539Z,1.00
2022-10-04T11:53:25.539Z,0.80
2022-10-04T11:54:25.545Z,0.90
2022-10-04T11:55:25.541Z,0.90
2022-10-04T11:56:25.543Z,0.90
2022-10-04T11:57:25.541Z,0.90
2022-10-04T11:58:25.544Z,0.90
2022-10-04T11:59:25.544Z,1.00
2022-10-04T12:00:25.545Z,1.00
2022-10-04T12:01:25.546Z,0.90
2022-10-04T12:02:25.546Z,0.90
2022-10-04T12:03:25.614Z,0.90
2022-10-04T12:04:25.603Z,0.90
2022-10-04T12:05:25.549Z,0.90
2022-10-04T12:06:25.573Z,0.90
2022-10-04T12:07:25.548Z,0.90
2022-10-04T12:08:25.550Z,0.90
2022-10-04T12:09:25.551Z,1.00
2022-10-04T12:10:25.553Z,1.00
2022-10-04T12:11:25.554Z,0.90
2022-10-04T12:12:25.553Z,0.90
2022-10-04T12:13:25.553Z,1.00
2022-10-04T12:14:25.554Z,0.80
2022-10-04T12:15:25.555Z,0.90
2022-10-04T12:16:25.604Z,0.70
2022-10-04T12:17:25.558Z,0.80
2022-10-04T12:18:25.559Z,0.60
2022-10-04T12:19:25.557Z,0.80
2022-10-04T12:20:25.559Z,0.90
2022-10-04T12:21:25.559Z,0.80
2022-10-04T12:22:25.583Z,0.90
2022-10-04T12:23:25.560Z,0.90
2022-10-04T12:24:25.562Z,0.70
2022-10-04T12:25:25.562Z,0.90
2022-10-04T12:26:25.564Z,0.90
2022-10-04T12:27:25.565Z,0.80
2022-10-04T12:28:25.640Z,0.80
2022-10-04T12:29:25.565Z,0.70
2022-10-04T12:30:25.568Z,0.70
2022-10-04T12:31:25.610Z,0.80
2022-10-04T12:32:25.569Z,0.80
2022-10-04T12:33:25.569Z,0.80
2022-10-04T12:34:25.569Z,0.90
2022-10-04T12:35:25.569Z,0.70
2022-10-04T12:36:25.571Z,0.80
2022-10-04T12:37:25.572Z,0.60
2022-10-04T12:38:25.594Z,0.80
2022-10-04T12:39:25.573Z,0.80
2022-10-04T12:40:25.574Z,0.70
2022-10-04T12:41:25.576Z,0.70
2022-10-04T12:42:28.188Z,0.80
2022-10-04T12:43:25.576Z,0.90
2022-10-04T12:44:25.576Z,0.80
2022-10-04T12:45:25.629Z,0.80
2022-10-04T12:46:25.580Z,0.80
2022-10-04T12:47:25.579Z,0.80
2022-10-04T12:48:25.582Z,0.80
2022-10-04T12:49:25.584Z,0.70
2022-10-04T12:50:25.581Z,0.90
2022-10-04T12:51:25.581Z,0.90
2022-10-04T12:52:25.584Z,0.80
2022-10-04T12:53:25.584Z,0.80
2022-10-04T12:54:25.607Z,0.70
2022-10-04T12:55:25.586Z,0.60
2022-10-04T12:56:25.587Z,0.80
2022-10-04T12:57:25.586Z,0.70
2022-10-04T12:58:25.590Z,0.80
2022-10-04T12:59:25.589Z,0.70
2022-10-04T13:00:25.591Z,0.70
2022-10-04T13:01:25.645Z,0.70
2022-10-04T13:02:25.691Z,0.80
2022-10-04T13:03:25.591Z,0.60
2022-10-04T13:04:25.593Z,0.80
2022-10-04T13:05:25.597Z,0.80
2022-10-04T13:06:25.593Z,0.80
2022-10-04T13:07:25.595Z,0.80
2022-10-04T13:08:25.595Z,0.90
2022-10-04T13:09:25.598Z,0.80
2022-10-04T13:10:26.085Z,0.70
2022-10-04T13:11:25.596Z,0.70
2022-10-04T13:12:25.599Z,0.60
2022-10-04T13:13:25.602Z,0.70
2022-10-04T13:14:25.600Z,0.80
2022-10-04T13:15:25.677Z,0.80
2022-10-04T13:17:34.659Z,0.70
2022-10-04T13:18:25.603Z,0.70
2022-10-04T13:19:25.603Z,0.70
2022-10-04T13:20:25.605Z,0.70